Time;durP1;ratioP1;P1;durP2;ratioP2;P2;SDS_P1;SDS_P2;PMS_P1;PMS_P2;Temp;Humidity;BMP_temperature;BMP_pressure;BME280_temperature;BME280_humidity;BME280_pressure;Samples;Min_cycle;Max_cycle;Signal;HPM_P1;HPM_P2
2022/05/24 00:00:00;;;;;;;18.70;16.57;;;18.00;98.60;;;;;;5149011;27;20485;-70
2022/05/24 00:02:27;;;;;;;17.57;15.90;;;18.00;98.50;;;;;;5132867;28;20481;-71
2022/05/24 00:04:53;;;;;;;18.80;16.97;;;17.90;98.50;;;;;;5132891;28;20450;-70
2022/05/24 00:07:20;;;;;;;16.80;15.20;;;17.90;98.30;;;;;;5132183;28;20517;-70
2022/05/24 00:09:48;;;;;;;17.30;15.50;;;17.90;98.50;;;;;;5131320;28;20463;-70
2022/05/24 00:12:15;;;;;;;19.27;15.90;;;17.80;98.40;;;;;;5130405;28;20442;-70
2022/05/24 00:17:28;;;;;;;17.17;15.37;;;17.70;98.70;;;;;;5130914;28;20472;-70
2022/05/24 00:19:55;;;;;;;17.50;15.77;;;17.70;98.90;;;;;;5130336;28;20459;-70
2022/05/24 00:22:22;;;;;;;17.43;15.77;;;17.70;98.80;;;;;;5129356;28;20443;-70
2022/05/24 00:24:50;;;;;;;17.83;16.03;;;17.70;98.80;;;;;;5128956;28;20473;-70
2022/05/24 00:27:17;;;;;;;16.13;14.60;;;17.70;98.90;;;;;;5130014;28;20446;-70
2022/05/24 00:29:43;;;;;;;17.73;15.93;;;17.70;99.00;;;;;;5129984;28;20459;-70
2022/05/24 00:32:10;;;;;;;15.40;13.90;;;17.70;99.10;;;;;;5130145;28;20439;-70
2022/05/24 00:34:37;;;;;;;17.03;15.20;;;17.80;99.00;;;;;;5130981;28;20442;-70
2022/05/24 00:37:04;;;;;;;19.43;16.13;;;17.80;99.00;;;;;;5130272;28;20439;-70
2022/05/24 00:39:31;;;;;;;22.50;16.20;;;17.80;98.40;;;;;;5129700;28;20461;-70
2022/05/24 00:42:03;;;;;;;18.50;16.70;;;17.80;98.40;;;;;;5129779;28;20464;-70
2022/05/24 00:44:34;;;;;;;18.23;16.50;;;17.80;98.60;;;;;;5129589;28;20426;-70
2022/05/24 00:47:05;;;;;;;17.40;15.70;;;17.80;98.70;;;;;;5129803;28;20447;-70
2022/05/24 00:49:35;;;;;;;16.97;15.20;;;17.80;98.70;;;;;;5129558;28;20550;-70
2022/05/24 00:52:06;;;;;;;17.63;15.73;;;17.90;98.80;;;;;;5129766;28;20447;-70
2022/05/24 00:54:33;;;;;;;18.87;16.93;;;17.90;98.80;;;;;;5129644;28;20427;-70
2022/05/24 00:57:07;;;;;;;20.00;18.00;;;17.90;98.70;;;;;;5128820;28;20845;-70
2022/05/24 00:59:41;;;;;;;17.33;15.50;;;18.00;98.50;;;;;;5128024;28;20459;-70
2022/05/24 01:02:08;;;;;;;21.13;17.50;;;18.00;98.40;;;;;;5129191;28;20907;-70
2022/05/24 01:04:35;;;;;;;18.80;16.90;;;18.00;98.30;;;;;;5128836;28;20446;-71
2022/05/24 01:07:02;;;;;;;18.27;16.47;;;18.10;98.40;;;;;;5128150;28;20439;-71
2022/05/24 01:09:35;;;;;;;22.80;16.80;;;18.00;98.30;;;;;;5127949;28;20514;-71
2022/05/24 01:12:08;;;;;;;20.60;18.50;;;18.00;98.30;;;;;;5128755;28;20431;-70
2022/05/24 01:14:35;;;;;;;19.60;17.70;;;17.90;98.40;;;;;;5128861;28;20435;-70
2022/05/24 01:17:03;;;;;;;19.27;17.20;;;17.90;98.20;;;;;;5129215;28;20527;-70
2022/05/24 01:19:40;;;;;;;22.17;18.40;;;17.70;98.10;;;;;;5129146;28;20462;-70
2022/05/24 01:22:24;;;;;;;16.20;14.60;;;17.70;97.90;;;;;;5129021;28;20526;-70
2022/05/24 01:24:57;;;;;;;16.27;13.97;;;17.50;97.80;;;;;;5128868;28;20434;-70
2022/05/24 01:27:25;;;;;;;15.00;11.70;;;17.40;97.50;;;;;;5127997;28;20857;-70
2022/05/24 01:29:51;;;;;;;13.40;12.00;;;17.30;97.40;;;;;;5127968;28;20451;-70
2022/05/24 01:37:47;;;;;;;11.50;10.30;;;17.00;97.40;;;;;;5126930;28;20448;-71
2022/05/24 01:40:14;;;;;;;11.63;10.03;;;17.00;97.20;;;;;;5109438;28;20463;-71
2022/05/24 01:42:42;;;;;;;13.30;10.30;;;16.90;97.30;;;;;;5126472;28;20446;-70
2022/05/24 01:45:15;;;;;;;13.20;9.60;;;16.80;97.10;;;;;;5126394;28;20451;-71
2022/05/24 01:47:45;;;;;;;11.97;9.67;;;16.70;97.20;;;;;;5126396;28;20790;-70
2022/05/24 01:50:18;;;;;;;12.43;10.47;;;16.70;97.70;;;;;;5128070;28;20993;-70
2022/05/24 01:52:48;;;;;;;13.60;9.93;;;16.70;97.90;;;;;;5126016;28;20423;-70
2022/05/24 01:55:19;;;;;;;10.97;9.73;;;16.70;98.20;;;;;;5126492;28;20419;-70
2022/05/24 01:57:52;;;;;;;10.43;9.43;;;16.70;98.10;;;;;;5127985;28;20430;-70
2022/05/24 02:00:19;;;;;;;11.40;10.23;;;16.70;98.30;;;;;;5126462;28;20466;-71
2022/05/24 02:02:47;;;;;;;10.30;9.20;;;16.80;98.20;;;;;;5127358;28;20442;-71
2022/05/24 02:05:27;;;;;;;9.40;8.50;;;16.70;97.90;;;;;;5127254;28;20415;-71
2022/05/24 02:07:54;;;;;;;10.60;9.47;;;16.80;98.20;;;;;;5128066;28;20446;-71
2022/05/24 02:10:21;;;;;;;11.13;8.87;;;16.70;98.10;;;;;;5130642;28;20462;-71
2022/05/24 02:12:54;;;;;;;10.23;7.37;;;16.70;97.50;;;;;;5131227;28;20458;-71
2022/05/24 02:15:25;;;;;;;8.87;7.30;;;16.70;97.30;;;;;;5135469;28;20442;-71
2022/05/24 02:17:58;;;;;;;12.33;6.80;;;16.70;96.40;;;;;;5135613;28;20914;-70
2022/05/24 02:20:29;;;;;;;12.97;7.17;;;16.50;96.10;;;;;;5133702;28;20470;-70
2022/05/24 02:22:57;;;;;;;7.83;5.63;;;16.50;95.90;;;;;;5131847;28;20442;-70
2022/05/24 02:25:31;;;;;;;9.70;7.03;;;16.40;95.80;;;;;;5131345;28;20462;-70
2022/05/24 02:27:59;;;;;;;7.30;5.47;;;16.40;95.60;;;;;;5132166;28;20427;-70
2022/05/24 02:30:28;;;;;;;11.50;6.23;;;16.40;95.60;;;;;;5130882;28;20486;-70
2022/05/24 02:32:55;;;;;;;11.60;5.63;;;16.30;95.30;;;;;;5130989;28;20442;-70
2022/05/24 02:35:22;;;;;;;8.63;6.73;;;16.30;95.50;;;;;;5131607;28;20450;-70
2022/05/24 02:37:48;;;;;;;14.00;6.43;;;16.20;95.50;;;;;;5130029;28;20439;-70
2022/05/24 02:43:01;;;;;;;8.47;6.00;;;16.20;95.80;;;;;;5131094;28;20429;-70
2022/05/24 02:45:28;;;;;;;8.23;5.93;;;16.10;95.60;;;;;;5129886;28;20453;-70
2022/05/24 02:47:55;;;;;;;10.13;6.60;;;16.20;95.90;;;;;;5112765;28;20419;-70
2022/05/24 02:50:22;;;;;;;8.50;5.37;;;16.20;95.70;;;;;;5129306;28;20485;-70
2022/05/24 02:52:49;;;;;;;9.60;6.10;;;16.20;95.60;;;;;;5130514;28;20443;-70
2022/05/24 02:55:17;;;;;;;7.77;5.60;;;16.20;95.80;;;;;;5134395;28;20433;-69
2022/05/24 02:57:44;;;;;;;8.40;5.60;;;16.20;95.90;;;;;;5137080;28;20460;-70
2022/05/24 03:00:15;;;;;;;9.97;5.17;;;16.20;95.40;;;;;;5129649;27;20490;-69
2022/05/24 03:02:42;;;;;;;10.53;4.70;;;16.20;95.30;;;;;;5130093;28;20431;-69
2022/05/24 03:05:12;;;;;;;8.23;5.30;;;16.20;95.40;;;;;;5130774;28;20439;-70
2022/05/24 03:10:22;;;;;;;7.90;5.50;;;16.30;95.40;;;;;;5130168;28;20438;-69
2022/05/24 03:15:37;;;;;;;9.37;5.27;;;16.50;95.20;;;;;;5129737;28;20394;-70
2022/05/24 03:18:04;;;;;;;8.43;5.60;;;16.50;95.00;;;;;;5127260;28;20431;-70
2022/05/24 03:20:31;;;;;;;7.57;6.20;;;16.50;95.00;;;;;;5128290;28;20458;-70
2022/05/24 03:22:58;;;;;;;9.20;6.43;;;16.50;94.70;;;;;;5129241;28;20447;-70
2022/05/24 03:25:24;;;;;;;12.47;6.67;;;16.60;94.90;;;;;;5129172;28;20487;-70
2022/05/24 03:27:51;;;;;;;10.00;6.73;;;16.60;95.00;;;;;;5128874;28;20434;-69
2022/05/24 03:30:18;;;;;;;10.50;6.63;;;16.60;94.80;;;;;;5128892;28;20486;-70
2022/05/24 03:32:47;;;;;;;10.07;6.47;;;16.60;94.50;;;;;;5118426;28;21017;-69
2022/05/24 03:35:14;;;;;;;8.57;5.93;;;16.60;94.70;;;;;;5116113;28;20957;-69
2022/05/24 03:37:41;;;;;;;12.00;6.00;;;16.50;94.80;;;;;;5116372;28;20545;-69
2022/05/24 03:40:09;;;;;;;12.33;6.00;;;16.50;94.90;;;;;;5116352;28;20459;-69
2022/05/24 03:42:36;;;;;;;10.63;5.80;;;16.50;94.80;;;;;;5116111;28;20458;-69
2022/05/24 03:45:04;;;;;;;7.90;5.13;;;16.50;94.50;;;;;;5116317;28;20447;-69
2022/05/24 03:47:31;;;;;;;9.33;5.40;;;16.50;94.60;;;;;;5115769;28;20458;-69
2022/05/24 03:49:59;;;;;;;8.20;5.30;;;16.50;94.70;;;;;;5115436;28;20864;-69
2022/05/24 03:52:26;;;;;;;11.27;5.83;;;16.50;94.80;;;;;;5115635;28;20828;-69
2022/05/24 03:54:52;;;;;;;9.50;4.40;;;16.50;94.60;;;;;;5115675;28;20446;-69
2022/05/24 04:00:06;;;;;;;8.77;5.00;;;16.60;94.60;;;;;;5115611;28;20963;-69
2022/05/24 04:02:32;;;;;;;7.63;4.50;;;16.60;94.30;;;;;;5115159;28;20461;-69
2022/05/24 04:05:01;;;;;;;11.10;4.70;;;16.60;94.00;;;;;;5115786;28;20454;-69
2022/05/24 04:07:28;;;;;;;7.50;4.40;;;16.50;93.90;;;;;;5115905;28;20427;-69
2022/05/24 04:09:54;;;;;;;10.10;4.07;;;16.50;93.90;;;;;;5115504;28;20487;-69
2022/05/24 04:12:21;;;;;;;8.57;4.03;;;16.50;93.90;;;;;;5115526;28;20456;-69
2022/05/24 04:14:48;;;;;;;6.90;3.50;;;16.50;93.90;;;;;;5115458;28;20439;-69
2022/05/24 04:17:15;;;;;;;7.50;2.87;;;16.50;93.90;;;;;;5115592;28;20442;-69
2022/05/24 04:19:42;;;;;;;7.53;3.17;;;16.40;92.90;;;;;;5114914;28;20475;-69
2022/05/24 04:22:10;;;;;;;3.50;2.40;;;16.30;93.10;;;;;;5115531;28;20446;-69
2022/05/24 04:24:37;;;;;;;3.40;2.20;;;16.30;92.70;;;;;;5115710;28;20434;-69
2022/05/24 04:27:05;;;;;;;6.00;2.43;;;16.20;92.20;;;;;;5115211;28;20454;-69
2022/05/24 04:29:32;;;;;;;5.33;2.13;;;16.10;92.90;;;;;;5114713;28;20486;-69
2022/05/24 04:31:59;;;;;;;4.67;2.53;;;16.00;92.80;;;;;;5114522;28;20469;-69
2022/05/24 04:34:26;;;;;;;7.47;2.53;;;15.90;92.30;;;;;;5115617;28;20451;-69
2022/05/24 04:36:53;;;;;;;4.17;2.43;;;15.90;92.90;;;;;;5115152;28;20462;-69
2022/05/24 04:39:21;;;;;;;3.50;2.00;;;15.90;93.10;;;;;;5114751;28;20465;-69
2022/05/24 04:44:32;;;;;;;9.50;2.30;;;15.80;92.90;;;;;;5114834;28;20867;-67
2022/05/24 04:47:08;;;;;;;5.60;2.10;;;15.70;92.80;;;;;;5114289;28;20466;-68
2022/05/24 04:49:35;;;;;;;9.30;2.80;;;15.70;93.30;;;;;;5114603;28;20490;-67
2022/05/24 04:52:03;;;;;;;7.53;2.67;;;15.70;93.50;;;;;;5115202;28;20458;-67
2022/05/24 04:54:31;;;;;;;8.40;2.37;;;15.60;93.40;;;;;;5114718;28;20433;-67
2022/05/24 04:56:58;;;;;;;5.83;2.47;;;15.60;93.90;;;;;;5114629;28;20447;-67
2022/05/24 04:59:25;;;;;;;4.90;1.90;;;15.50;94.00;;;;;;5114447;28;20462;-68
2022/05/24 05:01:52;;;;;;;3.20;2.27;;;15.50;94.30;;;;;;5114455;28;20457;-66
2022/05/24 05:04:19;;;;;;;6.13;2.70;;;15.40;93.80;;;;;;5114091;28;20447;-66
2022/05/24 05:06:47;;;;;;;7.47;2.40;;;15.30;94.60;;;;;;5114266;28;21000;-67
2022/05/24 05:09:15;;;;;;;4.97;2.07;;;15.30;95.30;;;;;;5114598;28;20475;-67
2022/05/24 05:11:43;;;;;;;6.17;1.57;;;15.20;94.70;;;;;;5114635;28;20810;-67
2022/05/24 05:14:11;;;;;;;5.17;2.50;;;15.20;95.10;;;;;;5113989;28;20941;-67
2022/05/24 05:16:40;;;;;;;7.83;2.50;;;15.10;95.00;;;;;;5113821;28;20928;-67
2022/05/24 05:19:09;;;;;;;4.50;2.00;;;15.10;94.80;;;;;;5114300;28;20439;-68
2022/05/24 05:21:38;;;;;;;4.63;2.20;;;15.10;94.80;;;;;;5114175;28;20485;-67
2022/05/24 05:24:07;;;;;;;4.37;1.70;;;15.10;95.30;;;;;;5114311;28;20439;-67
2022/05/24 05:26:34;;;;;;;4.13;1.97;;;15.00;95.40;;;;;;5114131;28;20447;-67
2022/05/24 05:29:03;;;;;;;6.33;2.43;;;14.90;95.90;;;;;;5113954;28;20880;-67
2022/05/24 05:31:29;;;;;;;5.50;2.10;;;14.90;96.60;;;;;;5114098;28;20446;-67
2022/05/24 05:33:58;;;;;;;5.97;1.73;;;14.80;97.10;;;;;;5114083;28;20442;-67
2022/05/24 05:36:27;;;;;;;6.63;2.13;;;14.80;96.50;;;;;;5113879;28;20196;-68
2022/05/24 05:38:54;;;;;;;6.83;2.40;;;14.70;96.90;;;;;;5113762;28;20897;-67
2022/05/24 05:41:23;;;;;;;4.53;2.33;;;14.60;97.10;;;;;;5113689;28;20467;-67
2022/05/24 05:43:51;;;;;;;6.27;2.43;;;14.60;97.30;;;;;;5113903;28;20474;-66
2022/05/24 05:46:19;;;;;;;3.27;1.60;;;14.60;97.40;;;;;;5113537;28;20483;-67
2022/05/24 05:48:46;;;;;;;5.90;2.00;;;14.50;97.20;;;;;;5113736;28;20446;-67
2022/05/24 05:51:19;;;;;;;2.70;1.83;;;14.50;97.70;;;;;;5113500;28;20973;-67
2022/05/24 05:53:47;;;;;;;7.87;1.83;;;14.50;97.60;;;;;;5113874;28;20427;-67
2022/05/24 05:56:19;;;;;;;5.73;1.77;;;14.50;97.60;;;;;;5113922;28;20443;-67
2022/05/24 05:58:46;;;;;;;5.37;1.47;;;14.50;97.90;;;;;;5113830;28;20427;-67
2022/05/24 06:01:19;;;;;;;3.03;1.97;;;14.50;98.10;;;;;;5127493;28;21047;-68
2022/05/24 06:03:46;;;;;;;4.60;2.13;;;14.60;97.90;;;;;;5134061;28;20433;-68
2022/05/24 06:06:17;;;;;;;1.97;1.70;;;14.60;98.40;;;;;;5134021;28;20945;-68
2022/05/24 06:08:44;;;;;;;4.07;1.77;;;14.70;98.10;;;;;;5134176;28;20434;-67
2022/05/24 06:11:11;;;;;;;6.17;2.00;;;14.70;98.00;;;;;;5133997;28;20484;-68
2022/05/24 06:13:38;;;;;;;3.80;1.67;;;14.70;98.10;;;;;;5134214;28;20461;-68
2022/05/24 06:16:05;;;;;;;4.63;2.10;;;14.80;98.30;;;;;;5134644;28;20963;-68
2022/05/24 06:18:33;;;;;;;4.73;1.93;;;14.90;98.30;;;;;;5133958;28;20450;-68
2022/05/24 06:21:00;;;;;;;4.60;1.80;;;15.00;98.00;;;;;;5133712;28;20980;-68
2022/05/24 06:23:27;;;;;;;3.20;1.63;;;15.00;97.80;;;;;;5133655;28;20968;-68
2022/05/24 06:25:54;;;;;;;3.17;1.80;;;15.10;97.70;;;;;;5134027;28;20437;-69
2022/05/24 06:28:21;;;;;;;2.90;2.00;;;15.20;97.90;;;;;;5134012;28;20457;-68
2022/05/24 06:30:47;;;;;;;5.07;1.57;;;15.30;97.60;;;;;;5133796;28;20485;-68
2022/05/24 06:33:14;;;;;;;3.10;1.60;;;15.30;97.10;;;;;;5133743;28;20979;-68
2022/05/24 06:35:43;;;;;;;6.20;2.47;;;15.30;96.80;;;;;;5133592;28;20963;-68
2022/05/24 06:38:10;;;;;;;4.83;1.60;;;15.40;96.50;;;;;;5133846;28;20442;-68
2022/05/24 06:40:37;;;;;;;6.00;1.80;;;15.50;96.40;;;;;;5133582;28;20454;-67
2022/05/24 06:43:04;;;;;;;7.20;1.60;;;15.60;96.40;;;;;;5133835;28;20449;-68
2022/05/24 06:45:31;;;;;;;3.90;2.23;;;15.80;96.10;;;;;;5133564;27;21004;-68
2022/05/24 06:47:58;;;;;;;3.50;1.60;;;15.90;95.50;;;;;;5133757;28;20438;-69
2022/05/24 06:50:25;;;;;;;4.90;2.23;;;16.10;95.20;;;;;;5133806;28;20482;-68
2022/05/24 06:52:55;;;;;;;4.27;2.40;;;16.20;94.70;;;;;;5133835;27;20498;-68
2022/05/24 06:55:22;;;;;;;3.47;1.50;;;16.30;94.30;;;;;;5138050;27;20506;-68
2022/05/24 06:57:49;;;;;;;6.67;1.90;;;16.40;93.60;;;;;;5137548;27;20460;-68
2022/05/24 07:03:03;;;;;;;8.03;2.20;;;16.70;93.30;;;;;;5137482;27;20401;-68
2022/05/24 07:05:30;;;;;;;6.43;1.70;;;16.80;93.00;;;;;;5137338;27;20472;-68
2022/05/24 07:08:01;;;;;;;3.37;1.83;;;16.80;92.10;;;;;;5137449;27;20441;-68
2022/05/24 07:10:28;;;;;;;4.33;2.30;;;16.80;91.80;;;;;;5137457;27;20481;-68
2022/05/24 07:13:02;;;;;;;9.33;1.83;;;16.80;92.40;;;;;;5137343;27;20426;-68
2022/05/24 07:15:30;;;;;;;3.50;1.80;;;16.90;92.90;;;;;;5137451;27;20445;-68
2022/05/24 07:17:57;;;;;;;3.27;2.17;;;16.90;92.60;;;;;;5137213;27;20446;-68
2022/05/24 07:20:25;;;;;;;5.33;3.03;;;17.00;91.90;;;;;;5137496;27;20472;-68
2022/05/24 07:22:52;;;;;;;7.37;3.60;;;17.00;91.90;;;;;;5137053;27;20974;-68
2022/05/24 07:25:21;;;;;;;6.17;2.63;;;17.10;91.50;;;;;;5137106;27;20446;-68
2022/05/24 07:27:48;;;;;;;7.73;2.53;;;17.20;91.90;;;;;;5137060;27;20446;-68
2022/05/24 07:30:15;;;;;;;7.30;3.30;;;17.20;90.10;;;;;;5136912;27;20477;-69
2022/05/24 07:32:42;;;;;;;5.20;2.83;;;17.10;90.30;;;;;;5137138;27;20461;-69
2022/05/24 07:35:11;;;;;;;16.83;3.70;;;17.00;91.50;;;;;;5136845;27;20507;-69
2022/05/24 07:37:38;;;;;;;7.97;3.00;;;17.00;91.60;;;;;;5136602;27;20933;-69
2022/05/24 07:45:51;;;;;;;6.60;2.80;;;16.80;90.10;;;;;;5136667;27;20518;-69
2022/05/24 07:48:19;;;;;;;3.40;2.67;;;16.80;90.30;;;;;;5136532;27;20452;-68
2022/05/24 07:50:47;;;;;;;6.57;2.73;;;16.70;90.90;;;;;;5136235;27;20987;-68
2022/05/24 07:53:15;;;;;;;7.20;2.17;;;16.80;91.00;;;;;;5136651;27;20454;-68
2022/05/24 07:55:42;;;;;;;3.63;2.03;;;16.90;90.20;;;;;;5136432;27;20468;-69
2022/05/24 07:58:10;;;;;;;4.70;2.43;;;17.00;89.10;;;;;;5136546;27;20446;-69
2022/05/24 08:00:39;;;;;;;3.93;2.00;;;17.30;91.00;;;;;;5136118;27;20465;-69
2022/05/24 08:03:08;;;;;;;6.10;2.00;;;17.40;89.10;;;;;;5136685;27;20430;-69
2022/05/24 08:05:35;;;;;;;3.30;1.73;;;17.50;89.70;;;;;;5136494;27;20450;-69
2022/05/24 08:08:02;;;;;;;3.97;2.00;;;17.70;88.30;;;;;;5136121;27;20971;-69
2022/05/24 08:10:30;;;;;;;7.30;2.03;;;17.90;88.00;;;;;;5136226;27;20485;-69
2022/05/24 08:12:57;;;;;;;6.63;1.40;;;18.20;86.00;;;;;;5136159;27;20984;-69
2022/05/24 08:15:26;;;;;;;2.80;1.37;;;18.30;84.10;;;;;;5135869;27;20956;-69
2022/05/24 08:17:53;;;;;;;1.83;1.30;;;18.30;80.10;;;;;;5135860;27;20936;-69
2022/05/24 08:20:20;;;;;;;3.23;1.33;;;18.20;80.10;;;;;;5136050;27;20488;-68
2022/05/24 08:22:48;;;;;;;4.10;1.27;;;18.20;80.60;;;;;;5136033;27;20476;-70
2022/05/24 08:25:15;;;;;;;3.83;1.60;;;18.10;79.80;;;;;;5135860;27;20442;-69
2022/05/24 08:27:43;;;;;;;2.17;1.33;;;18.00;81.00;;;;;;5136131;27;20450;-69
2022/05/24 08:30:11;;;;;;;2.93;1.20;;;18.10;80.50;;;;;;5136189;27;20489;-69
2022/05/24 08:32:40;;;;;;;3.27;1.10;;;18.10;81.70;;;;;;5136153;27;20455;-69
2022/05/24 08:35:09;;;;;;;5.20;1.10;;;17.90;79.10;;;;;;5136246;27;20446;-69
2022/05/24 08:37:36;;;;;;;3.17;1.57;;;17.80;79.00;;;;;;5136012;27;20542;-69
2022/05/24 08:40:05;;;;;;;2.03;1.23;;;17.70;80.70;;;;;;5135771;27;20462;-69
2022/05/24 08:42:41;;;;;;;1.90;1.30;;;17.60;82.70;;;;;;5136087;27;20431;-69
2022/05/24 08:48:27;;;;;;;7.63;1.30;;;17.30;83.40;;;;;;5135770;27;20447;-69
2022/05/24 08:50:59;;;;;;;7.50;1.77;;;17.20;82.90;;;;;;5136103;27;20488;-68
2022/05/24 08:53:33;;;;;;;2.60;1.13;;;17.00;80.90;;;;;;5136427;27;20442;-69
2022/05/24 08:56:02;;;;;;;2.00;1.27;;;17.00;82.00;;;;;;5136016;27;20431;-69
2022/05/24 08:58:33;;;;;;;3.40;1.07;;;17.20;83.10;;;;;;5136009;27;20453;-69
2022/05/24 09:01:01;;;;;;;5.40;1.17;;;17.50;83.10;;;;;;5122425;27;20475;-69
2022/05/24 09:03:30;;;;;;;2.10;1.10;;;17.60;79.80;;;;;;5115614;28;20455;-69
2022/05/24 09:06:04;;;;;;;2.40;1.00;;;17.70;80.00;;;;;;5115908;28;20478;-69
2022/05/24 09:08:36;;;;;;;2.83;1.20;;;17.70;78.50;;;;;;5116633;28;20932;-69
2022/05/24 09:11:09;;;;;;;3.43;1.50;;;17.70;78.90;;;;;;5117147;28;20482;-69
2022/05/24 09:14:07;;;;;;;2.87;1.20;;;17.70;81.10;;;;;;5116660;28;20438;-69
2022/05/24 09:16:40;;;;;;;4.37;1.30;;;17.80;80.80;;;;;;5116412;28;20500;-69
2022/05/24 09:19:17;;;;;;;3.67;1.10;;;17.80;78.70;;;;;;5117872;28;20536;-69
2022/05/24 09:21:47;;;;;;;2.60;1.57;;;17.80;78.90;;;;;;5117064;28;20906;-69
2022/05/24 09:24:22;;;;;;;5.50;1.77;;;17.90;77.40;;;;;;5117672;28;20434;-69
2022/05/24 09:27:08;;;;;;;1.93;1.10;;;17.90;75.70;;;;;;5117829;28;20430;-69
2022/05/24 09:29:36;;;;;;;3.53;1.80;;;18.00;76.60;;;;;;5116743;28;20467;-69
2022/05/24 09:32:08;;;;;;;2.13;1.40;;;18.20;75.20;;;;;;5114145;28;20479;-69
2022/05/24 09:34:38;;;;;;;2.07;1.20;;;18.40;76.10;;;;;;5113999;28;20439;-69
2022/05/24 09:37:09;;;;;;;2.87;1.60;;;18.50;73.90;;;;;;5113903;28;20447;-69
2022/05/24 09:39:38;;;;;;;1.40;1.30;;;18.60;74.60;;;;;;5113904;28;20471;-69
2022/05/24 09:42:10;;;;;;;2.63;1.90;;;18.60;75.80;;;;;;5113873;28;20447;-69
2022/05/24 09:44:47;;;;;;;3.13;1.70;;;18.80;77.00;;;;;;5113977;28;20427;-69
2022/05/24 09:47:33;;;;;;;2.20;1.30;;;19.30;77.60;;;;;;5113447;28;20515;-69
2022/05/24 09:50:24;;;;;;;2.50;1.90;;;19.50;70.30;;;;;;5113637;28;20462;-69
2022/05/24 09:53:12;;;;;;;5.43;1.20;;;19.60;70.60;;;;;;5113976;28;20435;-69
2022/05/24 09:55:43;;;;;;;3.33;1.43;;;19.70;68.80;;;;;;5113845;28;20436;-69
2022/05/24 09:58:18;;;;;;;1.63;1.50;;;19.60;64.40;;;;;;5113912;28;20442;-69
2022/05/24 10:00:51;;;;;;;4.70;1.40;;;19.50;64.30;;;;;;5113702;28;20458;-70
2022/05/24 10:03:22;;;;;;;2.20;1.30;;;19.60;68.20;;;;;;5113862;28;20443;-70
2022/05/24 10:05:59;;;;;;;7.53;1.23;;;19.70;67.40;;;;;;5113861;28;20427;-70
2022/05/24 10:08:26;;;;;;;1.70;1.50;;;19.70;65.70;;;;;;5113670;28;20433;-69
2022/05/24 10:10:58;;;;;;;3.23;1.60;;;20.00;67.90;;;;;;5113451;28;20497;-69
2022/05/24 10:13:36;;;;;;;4.07;1.53;;;20.30;66.90;;;;;;5113645;28;20435;-70
2022/05/24 10:16:12;;;;;;;2.60;1.30;;;20.50;64.10;;;;;;5113610;28;20434;-70
2022/05/24 10:18:58;;;;;;;3.10;2.20;;;20.80;64.10;;;;;;5113735;28;20438;-70
2022/05/24 10:21:31;;;;;;;4.20;1.47;;;20.90;59.80;;;;;;5113916;28;20416;-70
2022/05/24 10:24:07;;;;;;;2.37;1.37;;;20.80;62.70;;;;;;5113630;28;20438;-70
2022/05/24 10:26:47;;;;;;;2.63;1.20;;;20.90;59.20;;;;;;5113528;28;20437;-70
2022/05/24 10:29:24;;;;;;;1.30;1.20;;;20.90;58.70;;;;;;5115403;28;20427;-69
2022/05/24 10:31:55;;;;;;;2.37;1.13;;;20.80;57.80;;;;;;5117330;28;20466;-70
2022/05/24 10:40:21;;;;;;;1.50;1.30;;;20.40;62.30;;;;;;5071784;27;21041;-70
2022/05/24 10:43:01;;;;;;;5.13;1.50;;;20.80;59.00;;;;;;5117523;28;20431;-69
2022/05/24 10:45:49;;;;;;;2.87;1.40;;;20.80;59.30;;;;;;5117283;28;20439;-69
2022/05/24 10:48:23;;;;;;;3.67;1.60;;;20.70;61.20;;;;;;5117188;28;20837;-70
2022/05/24 10:50:55;;;;;;;3.00;1.30;;;20.50;59.20;;;;;;5116814;28;20565;-70
2022/05/24 10:53:35;;;;;;;1.90;1.00;;;20.70;62.00;;;;;;5117106;28;20462;-70
2022/05/24 10:56:06;;;;;;;2.80;1.17;;;20.90;58.00;;;;;;5116721;28;20944;-70
2022/05/24 10:58:36;;;;;;;2.67;1.30;;;20.70;57.90;;;;;;5117124;28;20867;-70
2022/05/24 11:01:09;;;;;;;4.20;1.37;;;20.50;58.80;;;;;;5116834;28;20463;-70
2022/05/24 11:03:43;;;;;;;4.40;1.90;;;20.90;59.60;;;;;;5116904;28;20488;-70
2022/05/24 11:06:22;;;;;;;4.00;1.50;;;21.70;58.40;;;;;;5117006;28;20446;-70
2022/05/24 11:08:56;;;;;;;2.20;1.30;;;22.50;55.50;;;;;;5117623;28;20435;-71
2022/05/24 11:11:29;;;;;;;2.03;0.97;;;23.10;53.10;;;;;;5116293;28;21049;-70
2022/05/24 11:14:04;;;;;;;3.43;1.30;;;22.90;50.60;;;;;;5116957;28;20439;-70
2022/05/24 11:16:37;;;;;;;2.30;1.10;;;22.30;52.20;;;;;;5116610;28;20488;-70
2022/05/24 11:19:09;;;;;;;1.90;1.03;;;21.80;53.30;;;;;;5116470;28;20424;-70
2022/05/24 11:21:40;;;;;;;1.13;1.07;;;21.70;54.50;;;;;;5116603;28;20423;-70
2022/05/24 11:24:15;;;;;;;2.70;1.20;;;22.50;53.00;;;;;;5116550;28;20427;-70
2022/05/24 11:26:50;;;;;;;4.27;1.03;;;23.60;50.80;;;;;;5116475;28;20431;-70
2022/05/24 11:29:24;;;;;;;2.40;1.10;;;24.70;47.80;;;;;;5116507;28;20435;-70
2022/05/24 11:31:53;;;;;;;2.60;1.33;;;25.70;46.70;;;;;;5117004;28;20494;-71
2022/05/24 11:34:25;;;;;;;5.77;1.97;;;26.40;43.30;;;;;;5116827;28;20455;-71
2022/05/24 11:37:05;;;;;;;2.93;1.40;;;26.80;41.30;;;;;;5116011;28;20966;-71
2022/05/24 11:39:37;;;;;;;1.83;1.40;;;26.80;40.50;;;;;;5115659;28;20562;-71
2022/05/24 11:42:24;;;;;;;2.20;1.50;;;26.20;41.30;;;;;;5115876;28;20861;-70
2022/05/24 11:44:52;;;;;;;4.30;1.50;;;25.40;44.30;;;;;;5116127;28;20423;-70
2022/05/24 11:47:57;;;;;;;3.63;1.30;;;24.60;46.30;;;;;;5115787;28;20470;-70
2022/05/24 11:50:40;;;;;;;1.77;1.23;;;24.70;45.20;;;;;;5115866;28;20894;-70
2022/05/24 11:53:09;;;;;;;2.17;1.20;;;25.50;45.20;;;;;;5116039;28;20423;-70
2022/05/24 11:55:45;;;;;;;2.90;0.80;;;26.30;42.70;;;;;;5116197;28;20443;-70
2022/05/24 11:58:47;;;;;;;2.20;0.83;;;27.00;39.40;;;;;;5115796;28;20438;-71
2022/05/24 12:01:43;;;;;;;3.50;1.40;;;27.70;37.60;;;;;;5110186;28;20478;-71
2022/05/24 12:10:49;;;;;;;0.67;0.60;;;27.40;35.50;;;;;;5115532;28;21009;-68
2022/05/24 12:13:40;;;;;;;8.70;1.83;;;27.20;36.20;;;;;;5115761;28;20458;-68
2022/05/24 12:16:24;;;;;;;2.50;1.10;;;26.80;36.10;;;;;;5115552;28;20427;-68
2022/05/24 12:18:57;;;;;;;2.00;0.87;;;26.50;37.90;;;;;;5114678;28;20439;-68
2022/05/24 12:21:59;;;;;;;1.90;1.20;;;26.90;36.50;;;;;;5115372;28;20434;-68
2022/05/24 12:24:52;;;;;;;3.43;1.30;;;26.70;35.00;;;;;;5115504;28;20442;-68
2022/05/24 12:27:37;;;;;;;4.93;1.07;;;26.70;38.60;;;;;;5115417;28;20493;-68
2022/05/24 12:30:46;;;;;;;2.43;1.27;;;27.00;35.60;;;;;;5111519;28;20490;-68
2022/05/24 12:33:26;;;;;;;1.27;0.70;;;26.80;35.60;;;;;;5115190;28;20522;-68
2022/05/24 12:35:56;;;;;;;0.97;0.60;;;26.70;37.50;;;;;;5114971;28;20423;-68
2022/05/24 12:38:26;;;;;;;1.20;0.60;;;27.10;34.20;;;;;;5115200;28;20866;-68
2022/05/24 12:41:11;;;;;;;1.13;0.60;;;26.70;34.60;;;;;;5114735;28;20463;-68
2022/05/24 12:43:49;;;;;;;2.20;0.80;;;26.90;35.60;;;;;;5115147;28;20945;-68
2022/05/24 12:46:16;;;;;;;2.90;0.80;;;26.40;36.20;;;;;;5114527;28;20481;-69
2022/05/24 12:48:43;;;;;;;5.40;1.23;;;25.90;37.40;;;;;;5114798;28;20438;-69
2022/05/24 12:51:12;;;;;;;3.60;1.00;;;25.30;38.40;;;;;;5114023;28;20475;-69
2022/05/24 12:53:40;;;;;;;1.87;1.00;;;25.10;39.90;;;;;;5114805;28;20455;-69
2022/05/24 12:56:15;;;;;;;4.90;1.33;;;25.10;40.60;;;;;;5114644;28;20992;-69
2022/05/24 12:58:45;;;;;;;1.70;0.80;;;25.40;41.00;;;;;;5114819;28;20427;-69
2022/05/24 13:01:16;;;;;;;4.63;1.17;;;25.90;39.30;;;;;;5114571;28;20459;-69
2022/05/24 13:03:52;;;;;;;2.93;1.00;;;26.20;38.80;;;;;;5114668;28;20441;-69
2022/05/24 13:06:24;;;;;;;2.13;0.80;;;26.20;39.50;;;;;;5114755;28;20434;-69
2022/05/24 13:09:13;;;;;;;1.80;0.80;;;26.00;39.80;;;;;;5114546;28;20442;-69
2022/05/24 13:11:40;;;;;;;1.60;0.83;;;25.60;39.00;;;;;;5114640;28;20489;-69
2022/05/24 13:14:13;;;;;;;1.67;0.93;;;25.10;39.30;;;;;;5114464;28;20457;-69
2022/05/24 13:16:40;;;;;;;2.40;0.73;;;24.70;40.10;;;;;;5114512;28;20471;-69
2022/05/24 13:19:07;;;;;;;3.17;1.03;;;24.10;40.20;;;;;;5114211;28;20446;-69
2022/05/24 13:21:36;;;;;;;3.30;0.93;;;23.50;41.20;;;;;;5114164;28;20941;-69
2022/05/24 13:24:15;;;;;;;4.20;0.80;;;23.20;43.30;;;;;;5114302;28;20446;-69
2022/05/24 13:27:00;;;;;;;1.20;0.60;;;23.00;43.80;;;;;;5114416;28;20430;-69
2022/05/24 13:33:32;;;;;;;3.03;1.07;;;23.00;43.60;;;;;;5114261;28;20458;-70
2022/05/24 13:35:02;;;;;;;1.00;0.57;;;25.50;37.10;;;;;;5114229;28;20833;-68
2022/05/24 13:37:48;;;;;;;0.50;0.50;;;25.80;37.10;;;;;;5114176;28;20457;-69
2022/05/24 13:40:16;;;;;;;1.67;0.67;;;25.40;37.00;;;;;;5114088;28;20561;-68
2022/05/24 13:42:54;;;;;;;2.73;1.00;;;25.00;38.90;;;;;;5114072;28;20513;-68
2022/05/24 13:45:24;;;;;;;1.43;0.80;;;25.60;37.90;;;;;;5113932;28;20447;-68
2022/05/24 13:47:54;;;;;;;2.50;1.40;;;26.60;34.90;;;;;;5114036;28;20447;-69
2022/05/24 13:50:26;;;;;;;3.93;0.70;;;27.80;34.20;;;;;;5113793;28;20477;-69